sensor_id;sensor_type;location;lat;lon;timestamp;P1;durP1;ratioP1;P2;durP2;ratioP2
20896;SDS011;10608;42.600;23.398;2023-09-18T00:01:19;101.27;;;95.03;;
20896;SDS011;10608;42.600;23.398;2023-09-18T00:03:45;98.53;;;92.77;;
20896;SDS011;10608;42.600;23.398;2023-09-18T00:06:10;96.87;;;90.93;;
20896;SDS011;10608;42.600;23.398;2023-09-18T00:08:36;128.50;;;121.40;;
20896;SDS011;10608;42.600;23.398;2023-09-18T00:11:03;97.27;;;91.10;;
20896;SDS011;10608;42.600;23.398;2023-09-18T00:13:29;100.60;;;94.67;;
20896;SDS011;10608;42.600;23.398;2023-09-18T00:15:55;95.53;;;89.50;;
20896;SDS011;10608;42.600;23.398;2023-09-18T00:18:20;102.13;;;96.13;;
20896;SDS011;10608;42.600;23.398;2023-09-18T00:20:46;95.00;;;89.17;;
20896;SDS011;10608;42.600;23.398;2023-09-18T00:23:13;108.70;;;102.37;;
20896;SDS011;10608;42.600;23.398;2023-09-18T00:25:40;97.90;;;92.07;;
20896;SDS011;10608;42.600;23.398;2023-09-18T00:28:08;97.30;;;90.97;;
20896;SDS011;10608;42.600;23.398;2023-09-18T00:30:33;95.93;;;89.90;;
20896;SDS011;10608;42.600;23.398;2023-09-18T00:32:59;88.93;;;83.23;;
20896;SDS011;10608;42.600;23.398;2023-09-18T00:35:24;98.83;;;92.50;;
20896;SDS011;10608;42.600;23.398;2023-09-18T00:37:50;101.03;;;95.00;;
20896;SDS011;10608;42.600;23.398;2023-09-18T00:40:15;100.13;;;94.37;;
20896;SDS011;10608;42.600;23.398;2023-09-18T00:42:41;97.20;;;90.90;;
20896;SDS011;10608;42.600;23.398;2023-09-18T00:45:06;94.53;;;88.93;;
20896;SDS011;10608;42.600;23.398;2023-09-18T00:47:33;102.77;;;96.67;;
20896;SDS011;10608;42.600;23.398;2023-09-18T00:49:59;105.40;;;99.00;;
20896;SDS011;10608;42.600;23.398;2023-09-18T00:52:25;101.67;;;95.60;;
20896;SDS011;10608;42.600;23.398;2023-09-18T00:54:52;105.83;;;99.17;;
20896;SDS011;10608;42.600;23.398;2023-09-18T00:57:18;105.03;;;98.83;;
20896;SDS011;10608;42.600;23.398;2023-09-18T00:59:45;104.83;;;98.43;;
20896;SDS011;10608;42.600;23.398;2023-09-18T01:02:10;105.97;;;99.67;;
20896;SDS011;10608;42.600;23.398;2023-09-18T01:04:36;97.20;;;91.37;;
20896;SDS011;10608;42.600;23.398;2023-09-18T01:07:02;104.87;;;98.67;;
20896;SDS011;10608;42.600;23.398;2023-09-18T01:09:30;105.60;;;99.17;;
20896;SDS011;10608;42.600;23.398;2023-09-18T01:17:09;109.43;;;102.90;;
20896;SDS011;10608;42.600;23.398;2023-09-18T01:22:03;129.70;;;122.27;;
20896;SDS011;10608;42.600;23.398;2023-09-18T01:24:30;117.03;;;110.43;;
20896;SDS011;10608;42.600;23.398;2023-09-18T01:26:56;91.60;;;85.97;;
20896;SDS011;10608;42.600;23.398;2023-09-18T01:29:21;98.90;;;92.90;;
20896;SDS011;10608;42.600;23.398;2023-09-18T01:31:47;98.53;;;92.73;;
20896;SDS011;10608;42.600;23.398;2023-09-18T01:34:14;110.27;;;103.70;;
20896;SDS011;10608;42.600;23.398;2023-09-18T01:36:42;104.77;;;98.50;;
20896;SDS011;10608;42.600;23.398;2023-09-18T01:39:10;106.40;;;99.90;;
20896;SDS011;10608;42.600;23.398;2023-09-18T01:41:37;99.63;;;93.80;;
20896;SDS011;10608;42.600;23.398;2023-09-18T01:44:04;97.83;;;92.23;;
20896;SDS011;10608;42.600;23.398;2023-09-18T01:46:30;97.67;;;91.70;;
20896;SDS011;10608;42.600;23.398;2023-09-18T01:48:57;98.63;;;92.63;;
20896;SDS011;10608;42.600;23.398;2023-09-18T01:51:24;98.50;;;92.53;;
20896;SDS011;10608;42.600;23.398;2023-09-18T01:53:49;102.03;;;96.03;;
20896;SDS011;10608;42.600;23.398;2023-09-18T01:56:15;96.87;;;91.33;;
20896;SDS011;10608;42.600;23.398;2023-09-18T01:58:40;83.17;;;77.63;;
20896;SDS011;10608;42.600;23.398;2023-09-18T02:01:05;85.43;;;80.30;;
20896;SDS011;10608;42.600;23.398;2023-09-18T02:03:31;82.80;;;77.60;;
20896;SDS011;10608;42.600;23.398;2023-09-18T02:05:56;88.13;;;82.23;;
20896;SDS011;10608;42.600;23.398;2023-09-18T02:08:22;94.07;;;88.13;;
20896;SDS011;10608;42.600;23.398;2023-09-18T02:10:47;96.00;;;90.33;;
20896;SDS011;10608;42.600;23.398;2023-09-18T02:13:12;100.13;;;94.03;;
20896;SDS011;10608;42.600;23.398;2023-09-18T02:15:38;99.60;;;93.57;;
20896;SDS011;10608;42.600;23.398;2023-09-18T02:18:04;99.50;;;93.40;;
20896;SDS011;10608;42.600;23.398;2023-09-18T02:20:29;99.40;;;93.67;;
20896;SDS011;10608;42.600;23.398;2023-09-18T02:22:54;109.17;;;102.77;;
20896;SDS011;10608;42.600;23.398;2023-09-18T02:25:20;107.93;;;101.37;;
20896;SDS011;10608;42.600;23.398;2023-09-18T02:27:46;104.27;;;98.40;;
20896;SDS011;10608;42.600;23.398;2023-09-18T02:30:11;106.33;;;99.63;;
20896;SDS011;10608;42.600;23.398;2023-09-18T02:32:37;99.80;;;93.87;;
20896;SDS011;10608;42.600;23.398;2023-09-18T02:35:02;100.80;;;95.03;;
20896;SDS011;10608;42.600;23.398;2023-09-18T02:37:29;93.60;;;88.17;;
20896;SDS011;10608;42.600;23.398;2023-09-18T02:39:54;90.20;;;84.83;;
20896;SDS011;10608;42.600;23.398;2023-09-18T02:42:20;93.27;;;87.67;;
20896;SDS011;10608;42.600;23.398;2023-09-18T02:44:45;106.57;;;100.20;;
20896;SDS011;10608;42.600;23.398;2023-09-18T02:47:10;111.60;;;105.27;;
20896;SDS011;10608;42.600;23.398;2023-09-18T02:49:36;116.90;;;110.23;;
20896;SDS011;10608;42.600;23.398;2023-09-18T02:52:02;103.43;;;97.70;;
20896;SDS011;10608;42.600;23.398;2023-09-18T02:54:28;102.53;;;96.60;;
20896;SDS011;10608;42.600;23.398;2023-09-18T02:56:53;105.00;;;98.87;;
20896;SDS011;10608;42.600;23.398;2023-09-18T02:59:19;99.43;;;93.70;;
20896;SDS011;10608;42.600;23.398;2023-09-18T03:01:44;84.73;;;79.60;;
20896;SDS011;10608;42.600;23.398;2023-09-18T03:04:09;80.53;;;75.73;;
20896;SDS011;10608;42.600;23.398;2023-09-18T03:06:37;74.47;;;69.70;;
20896;SDS011;10608;42.600;23.398;2023-09-18T03:09:04;73.37;;;68.73;;
20896;SDS011;10608;42.600;23.398;2023-09-18T03:11:30;78.40;;;73.60;;
20896;SDS011;10608;42.600;23.398;2023-09-18T03:13:55;81.00;;;76.07;;
20896;SDS011;10608;42.600;23.398;2023-09-18T03:16:20;78.73;;;73.87;;
20896;SDS011;10608;42.600;23.398;2023-09-18T03:18:46;91.17;;;85.30;;
20896;SDS011;10608;42.600;23.398;2023-09-18T03:21:11;108.43;;;102.37;;
20896;SDS011;10608;42.600;23.398;2023-09-18T03:23:37;88.57;;;82.60;;
20896;SDS011;10608;42.600;23.398;2023-09-18T03:26:02;86.73;;;81.53;;
20896;SDS011;10608;42.600;23.398;2023-09-18T03:28:27;90.57;;;85.27;;
20896;SDS011;10608;42.600;23.398;2023-09-18T03:30:53;81.00;;;75.83;;
20896;SDS011;10608;42.600;23.398;2023-09-18T03:33:18;81.37;;;76.60;;
20896;SDS011;10608;42.600;23.398;2023-09-18T03:35:50;74.10;;;69.53;;
20896;SDS011;10608;42.600;23.398;2023-09-18T03:38:16;73.10;;;68.33;;
20896;SDS011;10608;42.600;23.398;2023-09-18T03:40:42;90.43;;;84.87;;
20896;SDS011;10608;42.600;23.398;2023-09-18T03:43:09;102.70;;;96.43;;
20896;SDS011;10608;42.600;23.398;2023-09-18T03:45:35;97.03;;;91.50;;
20896;SDS011;10608;42.600;23.398;2023-09-18T03:48:00;91.17;;;85.83;;
20896;SDS011;10608;42.600;23.398;2023-09-18T03:50:26;94.40;;;88.47;;
20896;SDS011;10608;42.600;23.398;2023-09-18T03:52:52;96.03;;;90.43;;
20896;SDS011;10608;42.600;23.398;2023-09-18T03:55:17;105.97;;;99.93;;
20896;SDS011;10608;42.600;23.398;2023-09-18T03:57:43;98.57;;;92.43;;
20896;SDS011;10608;42.600;23.398;2023-09-18T04:00:10;99.17;;;93.40;;
20896;SDS011;10608;42.600;23.398;2023-09-18T04:02:36;78.17;;;73.27;;
20896;SDS011;10608;42.600;23.398;2023-09-18T04:05:01;87.20;;;81.60;;
20896;SDS011;10608;42.600;23.398;2023-09-18T04:07:28;91.47;;;86.13;;
20896;SDS011;10608;42.600;23.398;2023-09-18T04:09:53;84.90;;;79.30;;
20896;SDS011;10608;42.600;23.398;2023-09-18T04:12:19;90.17;;;84.67;;
20896;SDS011;10608;42.600;23.398;2023-09-18T04:14:45;87.27;;;82.00;;
20896;SDS011;10608;42.600;23.398;2023-09-18T04:17:10;92.83;;;87.43;;
20896;SDS011;10608;42.600;23.398;2023-09-18T04:19:35;100.30;;;94.33;;
20896;SDS011;10608;42.600;23.398;2023-09-18T04:22:01;85.57;;;80.10;;
20896;SDS011;10608;42.600;23.398;2023-09-18T04:24:26;86.80;;;81.50;;
20896;SDS011;10608;42.600;23.398;2023-09-18T04:26:52;84.40;;;79.10;;
20896;SDS011;10608;42.600;23.398;2023-09-18T04:29:18;82.67;;;77.40;;
20896;SDS011;10608;42.600;23.398;2023-09-18T04:31:43;83.07;;;77.57;;
20896;SDS011;10608;42.600;23.398;2023-09-18T04:34:09;90.83;;;84.87;;
20896;SDS011;10608;42.600;23.398;2023-09-18T04:36:35;86.07;;;80.57;;
20896;SDS011;10608;42.600;23.398;2023-09-18T04:39:02;86.80;;;81.57;;
20896;SDS011;10608;42.600;23.398;2023-09-18T04:41:29;91.10;;;84.90;;
20896;SDS011;10608;42.600;23.398;2023-09-18T04:43:55;106.33;;;99.87;;
20896;SDS011;10608;42.600;23.398;2023-09-18T04:46:20;122.23;;;115.17;;
20896;SDS011;10608;42.600;23.398;2023-09-18T04:48:46;136.50;;;128.50;;
20896;SDS011;10608;42.600;23.398;2023-09-18T04:51:12;134.50;;;126.80;;
20896;SDS011;10608;42.600;23.398;2023-09-18T04:53:37;138.00;;;130.37;;
20896;SDS011;10608;42.600;23.398;2023-09-18T04:56:03;93.73;;;88.47;;
20896;SDS011;10608;42.600;23.398;2023-09-18T04:58:28;86.10;;;81.00;;
20896;SDS011;10608;42.600;23.398;2023-09-18T05:00:57;71.93;;;67.63;;
20896;SDS011;10608;42.600;23.398;2023-09-18T05:03:23;63.23;;;59.47;;
20896;SDS011;10608;42.600;23.398;2023-09-18T05:05:49;59.20;;;55.30;;
20896;SDS011;10608;42.600;23.398;2023-09-18T05:08:15;46.10;;;43.03;;
20896;SDS011;10608;42.600;23.398;2023-09-18T05:10:41;39.40;;;36.30;;
20896;SDS011;10608;42.600;23.398;2023-09-18T05:13:07;39.67;;;36.63;;
20896;SDS011;10608;42.600;23.398;2023-09-18T05:15:33;34.50;;;31.83;;
20896;SDS011;10608;42.600;23.398;2023-09-18T05:17:59;32.97;;;30.63;;
20896;SDS011;10608;42.600;23.398;2023-09-18T05:20:25;29.27;;;26.90;;
20896;SDS011;10608;42.600;23.398;2023-09-18T05:22:52;30.80;;;28.30;;
20896;SDS011;10608;42.600;23.398;2023-09-18T05:25:19;28.93;;;26.47;;
20896;SDS011;10608;42.600;23.398;2023-09-18T05:27:46;29.43;;;27.00;;
20896;SDS011;10608;42.600;23.398;2023-09-18T05:30:18;29.40;;;27.03;;
20896;SDS011;10608;42.600;23.398;2023-09-18T05:32:46;26.87;;;24.87;;
20896;SDS011;10608;42.600;23.398;2023-09-18T05:35:13;28.83;;;26.57;;
20896;SDS011;10608;42.600;23.398;2023-09-18T05:37:40;26.37;;;24.43;;
20896;SDS011;10608;42.600;23.398;2023-09-18T05:40:07;22.87;;;21.10;;
20896;SDS011;10608;42.600;23.398;2023-09-18T05:42:40;25.37;;;23.47;;
20896;SDS011;10608;42.600;23.398;2023-09-18T05:45:11;24.40;;;22.10;;
20896;SDS011;10608;42.600;23.398;2023-09-18T05:47:37;24.73;;;22.67;;
20896;SDS011;10608;42.600;23.398;2023-09-18T05:50:06;22.87;;;21.17;;
20896;SDS011;10608;42.600;23.398;2023-09-18T05:52:33;24.20;;;22.20;;
20896;SDS011;10608;42.600;23.398;2023-09-18T05:55:00;27.17;;;25.27;;
20896;SDS011;10608;42.600;23.398;2023-09-18T05:57:26;27.93;;;25.83;;
20896;SDS011;10608;42.600;23.398;2023-09-18T05:59:54;29.97;;;27.73;;
20896;SDS011;10608;42.600;23.398;2023-09-18T06:02:20;26.47;;;24.37;;
20896;SDS011;10608;42.600;23.398;2023-09-18T06:04:45;23.97;;;21.87;;
20896;SDS011;10608;42.600;23.398;2023-09-18T06:07:11;27.60;;;25.63;;
20896;SDS011;10608;42.600;23.398;2023-09-18T06:09:38;23.90;;;22.10;;
20896;SDS011;10608;42.600;23.398;2023-09-18T06:12:04;24.80;;;22.90;;
20896;SDS011;10608;42.600;23.398;2023-09-18T06:14:30;25.93;;;24.07;;
20896;SDS011;10608;42.600;23.398;2023-09-18T06:16:56;23.70;;;21.67;;
20896;SDS011;10608;42.600;23.398;2023-09-18T06:19:22;24.27;;;22.33;;
20896;SDS011;10608;42.600;23.398;2023-09-18T06:21:47;25.10;;;23.33;;
20896;SDS011;10608;42.600;23.398;2023-09-18T06:24:13;24.80;;;22.80;;
20896;SDS011;10608;42.600;23.398;2023-09-18T06:26:38;26.03;;;23.93;;
20896;SDS011;10608;42.600;23.398;2023-09-18T06:29:04;23.93;;;22.13;;
20896;SDS011;10608;42.600;23.398;2023-09-18T06:31:29;25.10;;;23.23;;
20896;SDS011;10608;42.600;23.398;2023-09-18T06:33:56;26.20;;;24.30;;
20896;SDS011;10608;42.600;23.398;2023-09-18T06:36:21;24.53;;;22.63;;
20896;SDS011;10608;42.600;23.398;2023-09-18T06:38:47;24.33;;;22.13;;
20896;SDS011;10608;42.600;23.398;2023-09-18T06:41:12;25.17;;;23.10;;
20896;SDS011;10608;42.600;23.398;2023-09-18T06:43:37;26.13;;;24.13;;
20896;SDS011;10608;42.600;23.398;2023-09-18T06:46:03;22.37;;;20.60;;
20896;SDS011;10608;42.600;23.398;2023-09-18T06:48:28;23.67;;;21.53;;
20896;SDS011;10608;42.600;23.398;2023-09-18T06:50:57;22.60;;;20.80;;
20896;SDS011;10608;42.600;23.398;2023-09-18T06:53:26;25.57;;;23.27;;
20896;SDS011;10608;42.600;23.398;2023-09-18T06:55:55;24.03;;;22.13;;
20896;SDS011;10608;42.600;23.398;2023-09-18T06:58:20;25.93;;;23.77;;
20896;SDS011;10608;42.600;23.398;2023-09-18T07:00:46;26.37;;;24.47;;
20896;SDS011;10608;42.600;23.398;2023-09-18T07:03:12;23.33;;;21.53;;
20896;SDS011;10608;42.600;23.398;2023-09-18T07:05:39;23.93;;;21.80;;
20896;SDS011;10608;42.600;23.398;2023-09-18T07:08:05;22.90;;;20.97;;
20896;SDS011;10608;42.600;23.398;2023-09-18T07:10:34;27.43;;;25.43;;
20896;SDS011;10608;42.600;23.398;2023-09-18T07:13:00;23.90;;;21.60;;
20896;SDS011;10608;42.600;23.398;2023-09-18T07:15:25;23.23;;;21.43;;
20896;SDS011;10608;42.600;23.398;2023-09-18T07:17:51;23.17;;;21.37;;
20896;SDS011;10608;42.600;23.398;2023-09-18T07:20:16;23.40;;;20.83;;
20896;SDS011;10608;42.600;23.398;2023-09-18T07:22:44;21.97;;;19.70;;
20896;SDS011;10608;42.600;23.398;2023-09-18T07:25:12;22.67;;;20.77;;
20896;SDS011;10608;42.600;23.398;2023-09-18T07:27:38;26.67;;;24.60;;
20896;SDS011;10608;42.600;23.398;2023-09-18T07:30:09;27.33;;;25.23;;
20896;SDS011;10608;42.600;23.398;2023-09-18T07:32:35;32.27;;;30.03;;
20896;SDS011;10608;42.600;23.398;2023-09-18T07:35:01;26.50;;;24.43;;
20896;SDS011;10608;42.600;23.398;2023-09-18T07:37:27;21.67;;;19.87;;
20896;SDS011;10608;42.600;23.398;2023-09-18T07:39:52;21.03;;;19.53;;
20896;SDS011;10608;42.600;23.398;2023-09-18T07:42:18;22.37;;;20.87;;
20896;SDS011;10608;42.600;23.398;2023-09-18T07:44:43;19.37;;;17.77;;
20896;SDS011;10608;42.600;23.398;2023-09-18T07:47:09;19.90;;;18.47;;
20896;SDS011;10608;42.600;23.398;2023-09-18T07:49:34;20.07;;;18.57;;
20896;SDS011;10608;42.600;23.398;2023-09-18T07:52:00;18.37;;;16.90;;
20896;SDS011;10608;42.600;23.398;2023-09-18T07:54:25;19.83;;;18.23;;
20896;SDS011;10608;42.600;23.398;2023-09-18T07:56:50;19.23;;;17.63;;
20896;SDS011;10608;42.600;23.398;2023-09-18T07:59:16;21.43;;;19.83;;
20896;SDS011;10608;42.600;23.398;2023-09-18T08:01:42;20.03;;;18.47;;
20896;SDS011;10608;42.600;23.398;2023-09-18T08:04:07;19.60;;;18.20;;
20896;SDS011;10608;42.600;23.398;2023-09-18T08:06:32;15.67;;;14.47;;
20896;SDS011;10608;42.600;23.398;2023-09-18T08:08:58;16.87;;;15.47;;
20896;SDS011;10608;42.600;23.398;2023-09-18T08:11:23;21.13;;;19.33;;
20896;SDS011;10608;42.600;23.398;2023-09-18T08:13:49;21.20;;;19.50;;
20896;SDS011;10608;42.600;23.398;2023-09-18T08:16:14;18.37;;;16.83;;
20896;SDS011;10608;42.600;23.398;2023-09-18T08:18:40;18.20;;;16.70;;
20896;SDS011;10608;42.600;23.398;2023-09-18T08:21:06;19.77;;;18.07;;
20896;SDS011;10608;42.600;23.398;2023-09-18T08:23:34;19.43;;;18.03;;
20896;SDS011;10608;42.600;23.398;2023-09-18T08:26:03;17.27;;;15.63;;
20896;SDS011;10608;42.600;23.398;2023-09-18T08:28:29;16.03;;;14.73;;
20896;SDS011;10608;42.600;23.398;2023-09-18T08:30:54;16.37;;;14.77;;
20896;SDS011;10608;42.600;23.398;2023-09-18T08:33:20;16.13;;;14.83;;
20896;SDS011;10608;42.600;23.398;2023-09-18T08:35:46;16.23;;;14.93;;
20896;SDS011;10608;42.600;23.398;2023-09-18T08:38:12;15.87;;;14.60;;
20896;SDS011;10608;42.600;23.398;2023-09-18T08:40:39;17.50;;;16.30;;
20896;SDS011;10608;42.600;23.398;2023-09-18T08:43:06;17.13;;;15.67;;
20896;SDS011;10608;42.600;23.398;2023-09-18T08:45:37;17.13;;;15.90;;
20896;SDS011;10608;42.600;23.398;2023-09-18T08:48:08;17.67;;;16.17;;
20896;SDS011;10608;42.600;23.398;2023-09-18T08:50:34;17.83;;;16.43;;
20896;SDS011;10608;42.600;23.398;2023-09-18T08:53:01;16.77;;;15.27;;
20896;SDS011;10608;42.600;23.398;2023-09-18T08:55:27;17.17;;;15.87;;
20896;SDS011;10608;42.600;23.398;2023-09-18T08:57:53;16.77;;;15.47;;
20896;SDS011;10608;42.600;23.398;2023-09-18T09:00:19;15.87;;;14.67;;
20896;SDS011;10608;42.600;23.398;2023-09-18T09:02:46;15.80;;;14.50;;
20896;SDS011;10608;42.600;23.398;2023-09-18T09:05:13;17.40;;;16.00;;
20896;SDS011;10608;42.600;23.398;2023-09-18T09:07:39;17.83;;;16.43;;
20896;SDS011;10608;42.600;23.398;2023-09-18T09:10:05;22.77;;;20.97;;
20896;SDS011;10608;42.600;23.398;2023-09-18T09:15:32;20.17;;;18.60;;
20896;SDS011;10608;42.600;23.398;2023-09-18T09:18:12;16.73;;;15.50;;
20896;SDS011;10608;42.600;23.398;2023-09-18T09:20:39;16.63;;;15.33;;
20896;SDS011;10608;42.600;23.398;2023-09-18T09:23:05;19.37;;;17.90;;
20896;SDS011;10608;42.600;23.398;2023-09-18T09:25:32;19.67;;;18.03;;
20896;SDS011;10608;42.600;23.398;2023-09-18T09:28:01;16.30;;;15.07;;
20896;SDS011;10608;42.600;23.398;2023-09-18T09:30:30;17.63;;;16.13;;
20896;SDS011;10608;42.600;23.398;2023-09-18T09:32:57;26.47;;;24.87;;
20896;SDS011;10608;42.600;23.398;2023-09-18T09:35:27;17.60;;;16.40;;
20896;SDS011;10608;42.600;23.398;2023-09-18T09:37:58;19.77;;;18.47;;
20896;SDS011;10608;42.600;23.398;2023-09-18T09:40:26;21.70;;;20.13;;
20896;SDS011;10608;42.600;23.398;2023-09-18T09:42:52;21.43;;;19.50;;
20896;SDS011;10608;42.600;23.398;2023-09-18T09:45:25;18.57;;;17.17;;
20896;SDS011;10608;42.600;23.398;2023-09-18T09:47:53;19.67;;;18.00;;
20896;SDS011;10608;42.600;23.398;2023-09-18T09:50:19;17.83;;;16.63;;
20896;SDS011;10608;42.600;23.398;2023-09-18T09:52:47;17.60;;;16.20;;
20896;SDS011;10608;42.600;23.398;2023-09-18T09:55:18;15.93;;;14.47;;
20896;SDS011;10608;42.600;23.398;2023-09-18T09:57:46;14.70;;;13.70;;
20896;SDS011;10608;42.600;23.398;2023-09-18T10:00:13;14.73;;;13.53;;
20896;SDS011;10608;42.600;23.398;2023-09-18T10:02:53;15.47;;;14.57;;
20896;SDS011;10608;42.600;23.398;2023-09-18T10:05:22;16.50;;;15.30;;
20896;SDS011;10608;42.600;23.398;2023-09-18T10:07:53;14.80;;;13.77;;
20896;SDS011;10608;42.600;23.398;2023-09-18T10:10:23;16.07;;;14.57;;
20896;SDS011;10608;42.600;23.398;2023-09-18T10:12:49;21.20;;;19.80;;
20896;SDS011;10608;42.600;23.398;2023-09-18T10:15:15;19.33;;;18.03;;
20896;SDS011;10608;42.600;23.398;2023-09-18T10:17:42;15.50;;;14.40;;
20896;SDS011;10608;42.600;23.398;2023-09-18T10:20:12;18.30;;;16.83;;
20896;SDS011;10608;42.600;23.398;2023-09-18T10:22:52;15.20;;;13.70;;
20896;SDS011;10608;42.600;23.398;2023-09-18T10:25:23;13.47;;;12.40;;
20896;SDS011;10608;42.600;23.398;2023-09-18T10:27:50;14.43;;;13.43;;
20896;SDS011;10608;42.600;23.398;2023-09-18T10:30:18;18.57;;;17.27;;
20896;SDS011;10608;42.600;23.398;2023-09-18T10:32:47;19.27;;;17.97;;
20896;SDS011;10608;42.600;23.398;2023-09-18T10:35:14;18.20;;;16.80;;
20896;SDS011;10608;42.600;23.398;2023-09-18T10:37:43;20.87;;;19.27;;
20896;SDS011;10608;42.600;23.398;2023-09-18T10:40:11;18.17;;;16.93;;
20896;SDS011;10608;42.600;23.398;2023-09-18T10:42:37;15.90;;;14.60;;
20896;SDS011;10608;42.600;23.398;2023-09-18T10:45:04;13.20;;;12.30;;
20896;SDS011;10608;42.600;23.398;2023-09-18T10:47:31;14.33;;;13.03;;
20896;SDS011;10608;42.600;23.398;2023-09-18T10:49:59;16.40;;;15.33;;
20896;SDS011;10608;42.600;23.398;2023-09-18T10:52:24;16.00;;;14.70;;
20896;SDS011;10608;42.600;23.398;2023-09-18T10:54:50;18.10;;;16.83;;
20896;SDS011;10608;42.600;23.398;2023-09-18T10:57:16;17.13;;;15.93;;
20896;SDS011;10608;42.600;23.398;2023-09-18T10:59:45;16.20;;;15.00;;
20896;SDS011;10608;42.600;23.398;2023-09-18T11:02:13;17.10;;;15.90;;
20896;SDS011;10608;42.600;23.398;2023-09-18T11:04:41;15.67;;;14.67;;
20896;SDS011;10608;42.600;23.398;2023-09-18T11:07:07;13.97;;;12.87;;
20896;SDS011;10608;42.600;23.398;2023-09-18T11:09:41;13.57;;;12.67;;
20896;SDS011;10608;42.600;23.398;2023-09-18T11:12:11;14.47;;;13.47;;
20896;SDS011;10608;42.600;23.398;2023-09-18T11:22:37;15.03;;;14.03;;
20896;SDS011;10608;42.600;23.398;2023-09-18T11:28:00;13.93;;;13.03;;
20896;SDS011;10608;42.600;23.398;2023-09-18T11:30:27;14.23;;;13.13;;
20896;SDS011;10608;42.600;23.398;2023-09-18T11:32:54;12.47;;;11.67;;
20896;SDS011;10608;42.600;23.398;2023-09-18T11:35:20;12.77;;;11.97;;
20896;SDS011;10608;42.600;23.398;2023-09-18T11:37:47;12.80;;;11.93;;
20896;SDS011;10608;42.600;23.398;2023-09-18T11:40:29;14.27;;;13.07;;
20896;SDS011;10608;42.600;23.398;2023-09-18T11:45:50;12.60;;;11.50;;
20896;SDS011;10608;42.600;23.398;2023-09-18T11:48:20;11.87;;;11.07;;
20896;SDS011;10608;42.600;23.398;2023-09-18T11:50:48;13.30;;;12.47;;
20896;SDS011;10608;42.600;23.398;2023-09-18T11:53:15;13.13;;;12.23;;
20896;SDS011;10608;42.600;23.398;2023-09-18T11:55:43;13.90;;;12.90;;
20896;SDS011;10608;42.600;23.398;2023-09-18T11:58:08;14.37;;;13.37;;
20896;SDS011;10608;42.600;23.398;2023-09-18T12:00:35;14.60;;;13.53;;
20896;SDS011;10608;42.600;23.398;2023-09-18T12:03:20;16.60;;;15.60;;
20896;SDS011;10608;42.600;23.398;2023-09-18T12:05:53;13.50;;;12.50;;
20896;SDS011;10608;42.600;23.398;2023-09-18T12:08:21;15.37;;;14.17;;
20896;SDS011;10608;42.600;23.398;2023-09-18T12:10:49;12.93;;;12.07;;
20896;SDS011;10608;42.600;23.398;2023-09-18T12:13:15;15.30;;;14.30;;
20896;SDS011;10608;42.600;23.398;2023-09-18T12:15:41;15.93;;;14.83;;
20896;SDS011;10608;42.600;23.398;2023-09-18T12:18:07;16.23;;;15.00;;
20896;SDS011;10608;42.600;23.398;2023-09-18T12:20:33;14.00;;;12.90;;
20896;SDS011;10608;42.600;23.398;2023-09-18T12:22:59;13.90;;;12.77;;
20896;SDS011;10608;42.600;23.398;2023-09-18T12:25:25;13.23;;;12.33;;
20896;SDS011;10608;42.600;23.398;2023-09-18T12:27:51;14.90;;;13.90;;
20896;SDS011;10608;42.600;23.398;2023-09-18T12:30:18;14.10;;;13.20;;
20896;SDS011;10608;42.600;23.398;2023-09-18T12:32:45;14.57;;;13.43;;
20896;SDS011;10608;42.600;23.398;2023-09-18T12:35:13;15.20;;;13.97;;
20896;SDS011;10608;42.600;23.398;2023-09-18T12:37:39;23.30;;;21.90;;
20896;SDS011;10608;42.600;23.398;2023-09-18T12:40:06;16.93;;;15.90;;
20896;SDS011;10608;42.600;23.398;2023-09-18T12:42:39;28.70;;;26.93;;
20896;SDS011;10608;42.600;23.398;2023-09-18T12:45:06;33.40;;;31.47;;
20896;SDS011;10608;42.600;23.398;2023-09-18T12:47:33;25.80;;;24.20;;
20896;SDS011;10608;42.600;23.398;2023-09-18T12:50:05;19.23;;;17.27;;
20896;SDS011;10608;42.600;23.398;2023-09-18T12:52:36;21.50;;;20.13;;
20896;SDS011;10608;42.600;23.398;2023-09-18T12:55:01;17.80;;;16.70;;
20896;SDS011;10608;42.600;23.398;2023-09-18T12:57:29;21.53;;;20.20;;
20896;SDS011;10608;42.600;23.398;2023-09-18T12:59:55;19.57;;;18.40;;
20896;SDS011;10608;42.600;23.398;2023-09-18T13:02:20;19.80;;;18.70;;
20896;SDS011;10608;42.600;23.398;2023-09-18T13:04:55;16.97;;;15.77;;
20896;SDS011;10608;42.600;23.398;2023-09-18T13:07:22;17.03;;;16.03;;
20896;SDS011;10608;42.600;23.398;2023-09-18T13:10:01;20.07;;;18.97;;
20896;SDS011;10608;42.600;23.398;2023-09-18T13:12:48;18.73;;;17.40;;
20896;SDS011;10608;42.600;23.398;2023-09-18T13:15:30;18.10;;;16.70;;
20896;SDS011;10608;42.600;23.398;2023-09-18T13:17:57;15.70;;;14.70;;
20896;SDS011;10608;42.600;23.398;2023-09-18T13:20:28;18.63;;;17.53;;
20896;SDS011;10608;42.600;23.398;2023-09-18T13:22:55;18.10;;;17.00;;
20896;SDS011;10608;42.600;23.398;2023-09-18T13:25:26;16.63;;;15.53;;
20896;SDS011;10608;42.600;23.398;2023-09-18T13:27:54;15.67;;;14.67;;
20896;SDS011;10608;42.600;23.398;2023-09-18T13:30:20;20.97;;;19.47;;
20896;SDS011;10608;42.600;23.398;2023-09-18T13:32:47;21.57;;;20.37;;
20896;SDS011;10608;42.600;23.398;2023-09-18T13:35:17;18.37;;;17.20;;
20896;SDS011;10608;42.600;23.398;2023-09-18T13:37:43;16.63;;;15.53;;
20896;SDS011;10608;42.600;23.398;2023-09-18T13:40:09;14.80;;;13.80;;
20896;SDS011;10608;42.600;23.398;2023-09-18T13:42:36;13.60;;;12.70;;
20896;SDS011;10608;42.600;23.398;2023-09-18T13:45:02;13.63;;;12.83;;
20896;SDS011;10608;42.600;23.398;2023-09-18T13:47:31;15.40;;;14.40;;
20896;SDS011;10608;42.600;23.398;2023-09-18T13:49:59;14.37;;;13.30;;
20896;SDS011;10608;42.600;23.398;2023-09-18T13:52:27;15.47;;;14.47;;
20896;SDS011;10608;42.600;23.398;2023-09-18T13:54:54;15.80;;;14.90;;
20896;SDS011;10608;42.600;23.398;2023-09-18T13:57:20;16.43;;;15.43;;
20896;SDS011;10608;42.600;23.398;2023-09-18T13:59:46;15.10;;;13.93;;
20896;SDS011;10608;42.600;23.398;2023-09-18T14:02:14;18.27;;;17.07;;
20896;SDS011;10608;42.600;23.398;2023-09-18T14:04:40;15.60;;;14.70;;
20896;SDS011;10608;42.600;23.398;2023-09-18T14:07:06;17.10;;;16.10;;
20896;SDS011;10608;42.600;23.398;2023-09-18T14:09:33;15.43;;;14.33;;
20896;SDS011;10608;42.600;23.398;2023-09-18T14:11:58;15.23;;;14.03;;
20896;SDS011;10608;42.600;23.398;2023-09-18T14:14:24;13.17;;;12.37;;
20896;SDS011;10608;42.600;23.398;2023-09-18T14:16:50;14.83;;;13.83;;
20896;SDS011;10608;42.600;23.398;2023-09-18T14:19:16;14.73;;;13.63;;
20896;SDS011;10608;42.600;23.398;2023-09-18T14:21:41;15.10;;;14.03;;
20896;SDS011;10608;42.600;23.398;2023-09-18T14:24:08;17.37;;;16.17;;
20896;SDS011;10608;42.600;23.398;2023-09-18T14:26:34;16.57;;;15.37;;
20896;SDS011;10608;42.600;23.398;2023-09-18T14:29:05;15.70;;;14.73;;